Ana Sayfa
METAR-TAF:

METAR-TAF

Havaalanları :

Oscoda-Wurtsmith Airport

Oscoda, Michigan, Amerika Birleşik Devletleri

Enlem: 44-27N, Boylam: 083-22W, yükseklik: 193 m

Güncel hava durumu gözlemi

Rapor saat 13:56 UTC de 21 dakika önce yapıldı.
Rüzgar kuzeybatıdan 4 kt
Sıcaklık 0°C
Nem 74%
Basınç 1013 hPa
Görüş mesafesi: 16.1 km
Açık gökyüzü

METAR: KOSC 241356Z AUTO 32004KT 10SM CLR 00/M04 A2990 RMK AO2 T10011037

Saat: 09:17 (14:17 UTC)


TAF: eksik

4.000'den fazla havaalanı için hava durumu gözlemleri ve tahminleri (METAR ve TAF raporları).

Kullanılabilir istasyonlar harita üzerinde sarı ve kırmızı noktalarla gösterilir.

İstasyonun adını görmek için fareyi noktanın üzerinde gezdirin.

Sonrasında hava gözlem ve tahminlerini görmek için tıklayın.

Haritayı değiştirmek için: yaklaştırmak için siyah artı işaretli yeşil düğmeye ve uzaklaştırmak için de eksi işaretli düğmeye hızla tıklayın; bitişik haritalar için yeşil okları kullanın.


METAR-TAF: